TimeCDT,TemperatureF,Dew PointF,Humidity,Sea Level PressureIn,VisibilityMPH,Wind Direction,Wind SpeedMPH,Gust SpeedMPH,PrecipitationIn,Events,Conditions,WindDirDegrees,DateUTC
12:56 AM,72.0,70.0,93,30.13,8.0,Calm,Calm,-,N/A,,Clear,0,2013-06-24 05:56:00
1:56 AM,72.0,70.0,93,30.13,9.0,Calm,Calm,-,N/A,,Clear,0,2013-06-24 06:56:00
2:56 AM,72.0,70.0,93,30.12,6.0,Calm,Calm,-,N/A,,Clear,0,2013-06-24 07:56:00
3:14 AM,71.6,69.8,94,30.10,7.0,Calm,Calm,-,N/A,,Scattered Clouds,0,2013-06-24 08:14:00
3:56 AM,71.1,69.1,93,30.13,8.0,Calm,Calm,-,N/A,,Clear,0,2013-06-24 08:56:00
4:44 AM,69.8,68.0,94,30.11,1.8,Calm,Calm,-,N/A,,Partly Cloudy,0,2013-06-24 09:44:00
4:52 AM,71.1,69.1,93,30.13,1.0,SSE,3.5,-,N/A,,Mist,150,2013-06-24 09:52:00
4:57 AM,71.6,69.8,94,30.11,2.0,SSE,4.6,-,N/A,,Mostly Cloudy,160,2013-06-24 09:57:00
5:17 AM,71.6,69.8,94,30.12,4.0,Calm,Calm,-,N/A,,Overcast,0,2013-06-24 10:17:00
5:56 AM,72.0,71.1,97,30.15,4.0,South,3.5,-,N/A,,Overcast,170,2013-06-24 10:56:00
6:23 AM,71.6,71.6,100,30.14,2.0,Calm,Calm,-,N/A,,Overcast,0,2013-06-24 11:23:00
6:46 AM,73.4,71.6,94,30.14,4.0,Calm,Calm,-,N/A,,Overcast,0,2013-06-24 11:46:00
6:56 AM,73.0,71.1,93,30.17,5.0,Calm,Calm,-,N/A,,Overcast,0,2013-06-24 11:56:00
7:48 AM,73.4,71.6,94,30.16,2.5,Calm,Calm,-,N/A,,Overcast,0,2013-06-24 12:48:00
7:56 AM,73.9,72.0,93,30.19,3.0,Calm,Calm,-,N/A,,Overcast,0,2013-06-24 12:56:00
8:51 AM,75.2,71.6,89,30.17,8.0,Calm,Calm,-,N/A,,Overcast,0,2013-06-24 13:51:00
8:56 AM,77.0,73.0,88,30.19,9.0,SE,3.5,-,N/A,,Overcast,140,2013-06-24 13:56:00
9:05 AM,77.0,71.6,83,30.18,3.0,SSE,3.5,-,N/A,,Overcast,160,2013-06-24 14:05:00
9:31 AM,77.0,71.6,83,30.18,3.0,Calm,Calm,-,N/A,,Overcast,0,2013-06-24 14:31:00
9:40 AM,78.8,71.6,78,30.18,3.0,East,3.5,-,N/A,,Overcast,100,2013-06-24 14:40:00
9:56 AM,79.0,73.0,82,30.20,10.0,SE,3.5,-,N/A,,Overcast,130,2013-06-24 14:56:00
10:38 AM,80.6,71.6,74,30.17,10.0,Calm,Calm,-,N/A,,Mostly Cloudy,0,2013-06-24 15:38:00
10:56 AM,81.0,72.0,74,30.19,10.0,WNW,4.6,-,N/A,,Mostly Cloudy,290,2013-06-24 15:56:00
11:11 AM,82.4,71.6,70,30.16,10.0,Variable,4.6,-,N/A,,Scattered Clouds,0,2013-06-24 16:11:00
11:56 AM,84.9,71.1,63,30.19,10.0,Calm,Calm,-,N/A,,Mostly Cloudy,0,2013-06-24 16:56:00
12:56 PM,87.1,71.1,59,30.17,10.0,Variable,3.5,-,N/A,,Mostly Cloudy,0,2013-06-24 17:56:00
1:56 PM,86.0,72.0,63,30.16,10.0,SSE,11.5,16.1,N/A,,Scattered Clouds,150,2013-06-24 18:56:00
2:10 PM,82.4,71.6,70,30.15,10.0,South,16.1,21.9,N/A,Thunderstorm,Thunderstorm,190,2013-06-24 19:10:00
2:26 PM,82.4,69.8,66,30.13,10.0,South,9.2,18.4,N/A,,Scattered Clouds,190,2013-06-24 19:26:00
2:56 PM,81.0,69.1,67,30.15,10.0,SSE,10.4,17.3,N/A,,Mostly Cloudy,150,2013-06-24 19:56:00
3:56 PM,79.0,69.1,72,30.13,10.0,Variable,6.9,-,N/A,,Mostly Cloudy,0,2013-06-24 20:56:00
4:56 PM,79.0,70.0,74,30.13,10.0,Variable,3.5,-,N/A,,Mostly Cloudy,0,2013-06-24 21:56:00
5:56 PM,79.0,71.1,77,30.12,10.0,Calm,Calm,-,N/A,,Mostly Cloudy,0,2013-06-24 22:56:00
6:56 PM,78.1,72.0,81,30.11,10.0,SE,3.5,-,N/A,,Mostly Cloudy,140,2013-06-24 23:56:00
7:56 PM,75.9,72.0,87,30.12,10.0,SSE,3.5,-,N/A,,Mostly Cloudy,150,2013-06-25 00:56:00
8:56 PM,75.0,72.0,90,30.13,10.0,SE,4.6,-,N/A,,Mostly Cloudy,140,2013-06-25 01:56:00
9:56 PM,73.9,72.0,93,30.15,10.0,Calm,Calm,-,N/A,,Mostly Cloudy,0,2013-06-25 02:56:00
10:56 PM,73.0,71.1,93,30.15,10.0,Calm,Calm,-,N/A,,Mostly Cloudy,0,2013-06-25 03:56:00
11:56 PM,73.0,71.1,93,30.15,10.0,Calm,Calm,-,N/A,,Mostly Cloudy,0,2013-06-25 04:56:00